sensor_id;sensor_type;location;lat;lon;timestamp;pressure;altitude;pressure_sealevel;temperature;humidity
17209;BME280;8720;48.488;9.202;2024-03-17T00:01:58;97712.34;;;12.87;54.47
17209;BME280;8720;48.488;9.202;2024-03-17T00:04:26;97697.72;;;12.75;54.51
17209;BME280;8720;48.488;9.202;2024-03-17T00:06:54;97722.16;;;12.80;54.35
17209;BME280;8720;48.488;9.202;2024-03-17T00:09:22;97721.28;;;12.79;54.37
17209;BME280;8720;48.488;9.202;2024-03-17T00:11:50;97710.81;;;12.76;54.23
17209;BME280;8720;48.488;9.202;2024-03-17T00:14:17;97697.84;;;12.70;54.16
17209;BME280;8720;48.488;9.202;2024-03-17T00:16:45;97702.16;;;12.73;54.41
17209;BME280;8720;48.488;9.202;2024-03-17T00:19:11;97705.72;;;12.70;54.47
17209;BME280;8720;48.488;9.202;2024-03-17T00:21:39;97697.03;;;12.67;54.56
17209;BME280;8720;48.488;9.202;2024-03-17T00:24:07;97698.03;;;12.61;54.73
17209;BME280;8720;48.488;9.202;2024-03-17T00:26:35;97697.22;;;12.58;54.87
17209;BME280;8720;48.488;9.202;2024-03-17T00:29:02;97704.28;;;12.56;54.86
17209;BME280;8720;48.488;9.202;2024-03-17T00:31:31;97697.31;;;12.53;54.69
17209;BME280;8720;48.488;9.202;2024-03-17T00:33:57;97705.19;;;12.53;54.84
17209;BME280;8720;48.488;9.202;2024-03-17T00:36:25;97707.03;;;12.51;54.86
17209;BME280;8720;48.488;9.202;2024-03-17T00:38:51;97699.16;;;12.51;54.81
17209;BME280;8720;48.488;9.202;2024-03-17T00:41:20;97702.66;;;12.50;54.82
17209;BME280;8720;48.488;9.202;2024-03-17T00:43:47;97688.84;;;12.41;54.58
17209;BME280;8720;48.488;9.202;2024-03-17T00:46:14;97699.22;;;12.47;54.83
17209;BME280;8720;48.488;9.202;2024-03-17T00:48:41;97698.41;;;12.45;54.83
17209;BME280;8720;48.488;9.202;2024-03-17T00:51:08;97698.44;;;12.42;54.85
17209;BME280;8720;48.488;9.202;2024-03-17T00:53:34;97706.34;;;12.40;54.84
17209;BME280;8720;48.488;9.202;2024-03-17T00:56:02;97693.22;;;12.40;55.22
17209;BME280;8720;48.488;9.202;2024-03-17T00:58:29;97688.03;;;12.39;55.12
17209;BME280;8720;48.488;9.202;2024-03-17T01:00:57;97677.75;;;12.28;54.98
17209;BME280;8720;48.488;9.202;2024-03-17T01:03:23;97686.22;;;12.41;55.20
17209;BME280;8720;48.488;9.202;2024-03-17T01:05:51;97687.03;;;12.44;55.11
17209;BME280;8720;48.488;9.202;2024-03-17T01:08:18;97685.22;;;12.46;54.95
17209;BME280;8720;48.488;9.202;2024-03-17T01:10:48;97681.69;;;12.49;55.23
17209;BME280;8720;48.488;9.202;2024-03-17T01:13:16;97685.97;;;12.53;55.16
17209;BME280;8720;48.488;9.202;2024-03-17T01:15:51;97688.53;;;12.56;55.01
17209;BME280;8720;48.488;9.202;2024-03-17T01:18:19;97677.97;;;12.59;55.03
17209;BME280;8720;48.488;9.202;2024-03-17T01:20:45;97677.88;;;12.63;55.05
17209;BME280;8720;48.488;9.202;2024-03-17T01:23:13;97677.81;;;12.66;55.08
17209;BME280;8720;48.488;9.202;2024-03-17T01:25:39;97678.59;;;12.70;55.23
17209;BME280;8720;48.488;9.202;2024-03-17T01:28:07;97677.66;;;12.74;55.29
17209;BME280;8720;48.488;9.202;2024-03-17T01:30:33;97677.53;;;12.78;55.37
17209;BME280;8720;48.488;9.202;2024-03-17T01:33:02;97662.59;;;12.82;55.19
17209;BME280;8720;48.488;9.202;2024-03-17T01:35:30;97668.63;;;12.86;55.34
17209;BME280;8720;48.488;9.202;2024-03-17T01:37:57;97665.88;;;12.90;55.14
17209;BME280;8720;48.488;9.202;2024-03-17T01:40:24;97652.66;;;12.95;55.19
17209;BME280;8720;48.488;9.202;2024-03-17T01:42:51;97642.09;;;12.98;55.05
17209;BME280;8720;48.488;9.202;2024-03-17T01:45:26;97648.13;;;13.01;55.15
17209;BME280;8720;48.488;9.202;2024-03-17T01:47:59;97640.28;;;13.00;55.12
17209;BME280;8720;48.488;9.202;2024-03-17T01:50:31;97645.56;;;12.98;54.96
17209;BME280;8720;48.488;9.202;2024-03-17T01:53:03;97648.16;;;13.00;55.16
17209;BME280;8720;48.488;9.202;2024-03-17T01:55:31;97642.94;;;12.98;54.97
17209;BME280;8720;48.488;9.202;2024-03-17T01:58:00;97643.91;;;12.96;55.24
17209;BME280;8720;48.488;9.202;2024-03-17T02:00:26;97638.69;;;12.93;55.20
17209;BME280;8720;48.488;9.202;2024-03-17T02:02:55;97628.28;;;12.90;55.34
17209;BME280;8720;48.488;9.202;2024-03-17T02:05:21;97620.59;;;12.82;55.07
17209;BME280;8720;48.488;9.202;2024-03-17T02:07:50;97626.47;;;12.92;55.04
17209;BME280;8720;48.488;9.202;2024-03-17T02:10:17;97626.47;;;12.92;55.14
17209;BME280;8720;48.488;9.202;2024-03-17T02:12:44;97625.59;;;12.91;55.16
17209;BME280;8720;48.488;9.202;2024-03-17T02:15:10;97622.94;;;12.93;55.16
17209;BME280;8720;48.488;9.202;2024-03-17T02:17:38;97611.56;;;12.94;55.12
17209;BME280;8720;48.488;9.202;2024-03-17T02:20:05;97613.38;;;12.90;55.09
17209;BME280;8720;48.488;9.202;2024-03-17T02:22:35;97615.88;;;12.95;55.12
17209;BME280;8720;48.488;9.202;2024-03-17T02:25:01;97615.84;;;12.96;55.08
17209;BME280;8720;48.488;9.202;2024-03-17T02:27:29;97613.22;;;12.96;55.12
17209;BME280;8720;48.488;9.202;2024-03-17T02:29:55;97611.47;;;12.97;55.07
17209;BME280;8720;48.488;9.202;2024-03-17T02:32:23;97613.22;;;12.98;55.10
17209;BME280;8720;48.488;9.202;2024-03-17T02:34:51;97606.16;;;12.98;55.16
17209;BME280;8720;48.488;9.202;2024-03-17T02:37:18;97597.41;;;12.99;55.22
17209;BME280;8720;48.488;9.202;2024-03-17T02:39:46;97604.31;;;13.02;55.19
17209;BME280;8720;48.488;9.202;2024-03-17T02:42:13;97606.94;;;13.02;55.02
17209;BME280;8720;48.488;9.202;2024-03-17T02:44:41;97599.94;;;13.04;55.27
17209;BME280;8720;48.488;9.202;2024-03-17T02:47:08;97603.44;;;13.04;55.37
17209;BME280;8720;48.488;9.202;2024-03-17T02:49:36;97599.88;;;13.07;55.19
17209;BME280;8720;48.488;9.202;2024-03-17T02:52:07;97599.78;;;13.10;55.35
17209;BME280;8720;48.488;9.202;2024-03-17T02:54:35;97591.03;;;13.11;55.14
17209;BME280;8720;48.488;9.202;2024-03-17T02:57:05;97593.69;;;13.09;55.30
17209;BME280;8720;48.488;9.202;2024-03-17T02:59:33;97593.69;;;13.09;55.11
17209;BME280;8720;48.488;9.202;2024-03-17T03:02:05;97590.16;;;13.10;55.30
17209;BME280;8720;48.488;9.202;2024-03-17T03:04:33;97583.31;;;13.02;55.28
17209;BME280;8720;48.488;9.202;2024-03-17T03:07:02;97568.56;;;12.98;55.13
17209;BME280;8720;48.488;9.202;2024-03-17T03:09:29;97575.44;;;13.02;55.01
17209;BME280;8720;48.488;9.202;2024-03-17T03:11:59;97513.28;;;12.68;55.19
17209;BME280;8720;48.488;9.202;2024-03-17T03:14:28;97499.38;;;12.63;55.05
17209;BME280;8720;48.488;9.202;2024-03-17T03:16:55;97573.78;;;12.99;54.98
17209;BME280;8720;48.488;9.202;2024-03-17T03:19:23;97590.16;;;13.10;55.27
17209;BME280;8720;48.488;9.202;2024-03-17T03:21:50;97516.81;;;12.66;55.19
17209;BME280;8720;48.488;9.202;2024-03-17T03:24:17;97572.94;;;12.97;55.22
17209;BME280;8720;48.488;9.202;2024-03-17T03:26:45;97554.91;;;12.84;55.11
17209;BME280;8720;48.488;9.202;2024-03-17T03:29:12;97564.28;;;12.92;54.92
17209;BME280;8720;48.488;9.202;2024-03-17T03:31:41;97559.03;;;12.92;55.01
17209;BME280;8720;48.488;9.202;2024-03-17T03:34:09;97581.75;;;12.95;55.13
17209;BME280;8720;48.488;9.202;2024-03-17T03:36:38;97592.81;;;13.09;55.31
17209;BME280;8720;48.488;9.202;2024-03-17T03:39:07;97571.16;;;12.99;54.98
17209;BME280;8720;48.488;9.202;2024-03-17T03:41:37;97591.03;;;13.11;55.24
17209;BME280;8720;48.488;9.202;2024-03-17T03:44:05;97515.91;;;12.67;55.27
17209;BME280;8720;48.488;9.202;2024-03-17T03:46:32;97572.81;;;13.02;55.31
17209;BME280;8720;48.488;9.202;2024-03-17T03:49:01;97567.09;;;12.85;55.26
17209;BME280;8720;48.488;9.202;2024-03-17T03:51:30;97580.41;;;13.14;55.46
17209;BME280;8720;48.488;9.202;2024-03-17T03:53:57;97576.03;;;13.14;55.23
17209;BME280;8720;48.488;9.202;2024-03-17T03:56:24;97578.72;;;13.13;55.21
17209;BME280;8720;48.488;9.202;2024-03-17T03:58:52;97579.59;;;13.12;55.14
17209;BME280;8720;48.488;9.202;2024-03-17T04:01:19;97582.38;;;13.07;55.38
17209;BME280;8720;48.488;9.202;2024-03-17T04:03:48;97584.69;;;13.18;55.24
17209;BME280;8720;48.488;9.202;2024-03-17T04:06:17;97584.75;;;13.16;55.38
17209;BME280;8720;48.488;9.202;2024-03-17T04:08:45;97571.97;;;13.00;55.44
17209;BME280;8720;48.488;9.202;2024-03-17T04:11:12;97551.78;;;13.02;55.40
17209;BME280;8720;48.488;9.202;2024-03-17T04:13:40;97572.44;;;13.18;55.54
17209;BME280;8720;48.488;9.202;2024-03-17T04:16:08;97538.91;;;12.93;55.29
17209;BME280;8720;48.488;9.202;2024-03-17T04:18:36;97507.19;;;12.66;55.43
17209;BME280;8720;48.488;9.202;2024-03-17T04:21:06;97579.56;;;13.13;55.49
17209;BME280;8720;48.488;9.202;2024-03-17T04:23:35;97549.56;;;12.87;55.42
17209;BME280;8720;48.488;9.202;2024-03-17T04:26:04;97550.13;;;12.99;55.36
17209;BME280;8720;48.488;9.202;2024-03-17T04:28:33;97523.63;;;12.74;55.38
17209;BME280;8720;48.488;9.202;2024-03-17T04:31:06;97564.63;;;13.15;55.29
17209;BME280;8720;48.488;9.202;2024-03-17T04:33:34;97566.50;;;13.10;55.53
17209;BME280;8720;48.488;9.202;2024-03-17T04:36:02;97583.97;;;13.13;55.42
17209;BME280;8720;48.488;9.202;2024-03-17T04:38:30;97544.25;;;12.88;55.49
17209;BME280;8720;48.488;9.202;2024-03-17T04:40:59;97564.94;;;13.02;55.38
17209;BME280;8720;48.488;9.202;2024-03-17T04:43:32;97547.25;;;12.73;55.64
17209;BME280;8720;48.488;9.202;2024-03-17T04:46:01;97571.97;;;13.00;55.57
17209;BME280;8720;48.488;9.202;2024-03-17T04:48:30;97539.91;;;12.87;55.53
17209;BME280;8720;48.488;9.202;2024-03-17T04:50:58;97566.66;;;13.03;55.32
17209;BME280;8720;48.488;9.202;2024-03-17T04:53:26;97578.00;;;13.06;55.63
17209;BME280;8720;48.488;9.202;2024-03-17T04:56:01;97568.94;;;13.18;55.57
17209;BME280;8720;48.488;9.202;2024-03-17T04:58:30;97532.25;;;12.79;55.21
17209;BME280;8720;48.488;9.202;2024-03-17T05:01:03;97603.03;;;13.21;55.63
17209;BME280;8720;48.488;9.202;2024-03-17T05:07:31;97569.19;;;13.09;55.47
17209;BME280;8720;48.488;9.202;2024-03-17T05:09:59;97563.78;;;13.15;55.45
17209;BME280;8720;48.488;9.202;2024-03-17T05:12:27;97559.59;;;13.06;55.65
17209;BME280;8720;48.488;9.202;2024-03-17T05:14:55;97545.59;;;13.07;55.56
17209;BME280;8720;48.488;9.202;2024-03-17T05:17:22;97538.66;;;13.02;55.67
17209;BME280;8720;48.488;9.202;2024-03-17T05:19:50;97571.38;;;13.25;55.51
17209;BME280;8720;48.488;9.202;2024-03-17T05:22:18;97559.31;;;13.18;55.53
17209;BME280;8720;48.488;9.202;2024-03-17T05:24:45;97557.56;;;13.17;55.61
17209;BME280;8720;48.488;9.202;2024-03-17T05:27:14;97582.94;;;13.18;55.61
17209;BME280;8720;48.488;9.202;2024-03-17T05:29:43;97542.00;;;13.10;55.62
17209;BME280;8720;48.488;9.202;2024-03-17T05:32:10;97469.41;;;12.72;55.38
17209;BME280;8720;48.488;9.202;2024-03-17T05:34:38;97523.94;;;12.96;55.52
17209;BME280;8720;48.488;9.202;2024-03-17T05:37:05;97571.09;;;13.36;55.30
17209;BME280;8720;48.488;9.202;2024-03-17T05:39:33;97566.88;;;13.30;55.57
17209;BME280;8720;48.488;9.202;2024-03-17T05:42:00;97545.19;;;13.22;55.52
17209;BME280;8720;48.488;9.202;2024-03-17T05:44:29;97553.59;;;13.35;55.41
17209;BME280;8720;48.488;9.202;2024-03-17T05:47:17;97571.94;;;13.36;55.52
17209;BME280;8720;48.488;9.202;2024-03-17T05:49:45;97543.28;;;13.27;55.31
17209;BME280;8720;48.488;9.202;2024-03-17T05:52:13;97533.75;;;13.23;55.43
17209;BME280;8720;48.488;9.202;2024-03-17T05:54:40;97555.00;;;13.48;55.24
17209;BME280;8720;48.488;9.202;2024-03-17T05:57:07;97560.22;;;13.49;55.33
17209;BME280;8720;48.488;9.202;2024-03-17T05:59:38;97528.09;;;13.38;55.10
17209;BME280;8720;48.488;9.202;2024-03-17T06:02:05;97534.16;;;13.42;54.99
17209;BME280;8720;48.488;9.202;2024-03-17T06:04:34;97586.81;;;13.69;55.18
17209;BME280;8720;48.488;9.202;2024-03-17T06:07:04;97571.81;;;13.73;55.14
17209;BME280;8720;48.488;9.202;2024-03-17T06:09:32;97544.16;;;13.60;55.16
17209;BME280;8720;48.488;9.202;2024-03-17T06:11:59;97560.59;;;13.68;54.79
17209;BME280;8720;48.488;9.202;2024-03-17T06:14:27;97567.44;;;13.74;55.24
17209;BME280;8720;48.488;9.202;2024-03-17T06:16:55;97513.16;;;13.40;55.38
17209;BME280;8720;48.488;9.202;2024-03-17T06:19:22;97535.44;;;13.58;55.17
17209;BME280;8720;48.488;9.202;2024-03-17T06:21:51;97508.69;;;13.44;54.87
17209;BME280;8720;48.488;9.202;2024-03-17T06:24:19;97540.59;;;13.62;55.39
17209;BME280;8720;48.488;9.202;2024-03-17T06:26:46;97536.91;;;13.68;55.27
17209;BME280;8720;48.488;9.202;2024-03-17T06:29:14;97573.00;;;13.94;55.22
17209;BME280;8720;48.488;9.202;2024-03-17T06:31:42;97500.88;;;13.41;54.98
17209;BME280;8720;48.488;9.202;2024-03-17T06:34:11;97499.78;;;13.48;55.25
17209;BME280;8720;48.488;9.202;2024-03-17T06:36:41;97533.53;;;13.64;54.99
17209;BME280;8720;48.488;9.202;2024-03-17T06:39:10;97574.88;;;13.90;55.18
17209;BME280;8720;48.488;9.202;2024-03-17T06:41:42;97537.69;;;13.72;55.27
17209;BME280;8720;48.488;9.202;2024-03-17T06:44:09;97485.06;;;13.42;55.14
17209;BME280;8720;48.488;9.202;2024-03-17T06:46:36;97530.66;;;13.72;55.18
17209;BME280;8720;48.488;9.202;2024-03-17T06:49:04;97556.41;;;13.92;55.08
17209;BME280;8720;48.488;9.202;2024-03-17T06:51:31;97536.25;;;13.92;55.21
17209;BME280;8720;48.488;9.202;2024-03-17T06:53:59;97556.84;;;14.07;55.06
17209;BME280;8720;48.488;9.202;2024-03-17T06:56:27;97496.44;;;13.74;55.07
17209;BME280;8720;48.488;9.202;2024-03-17T06:58:55;97518.88;;;13.85;55.00
17209;BME280;8720;48.488;9.202;2024-03-17T07:01:22;97589.44;;;14.32;55.19
17209;BME280;8720;48.488;9.202;2024-03-17T07:03:50;97476.09;;;13.80;54.83
17209;BME280;8720;48.488;9.202;2024-03-17T07:06:17;97541.47;;;14.21;54.69
17209;BME280;8720;48.488;9.202;2024-03-17T07:08:44;97474.88;;;13.92;54.70
17209;BME280;8720;48.488;9.202;2024-03-17T07:11:12;97549.06;;;14.33;54.68
17209;BME280;8720;48.488;9.202;2024-03-17T07:13:41;97505.84;;;14.11;54.83
17209;BME280;8720;48.488;9.202;2024-03-17T07:16:09;97498.97;;;14.07;54.49
17209;BME280;8720;48.488;9.202;2024-03-17T07:18:37;97541.50;;;14.50;54.62
17209;BME280;8720;48.488;9.202;2024-03-17T07:21:05;97575.16;;;14.69;54.81
17209;BME280;8720;48.488;9.202;2024-03-17T07:23:33;97537.81;;;14.56;54.81
17209;BME280;8720;48.488;9.202;2024-03-17T07:26:02;97478.31;;;14.21;54.54
17209;BME280;8720;48.488;9.202;2024-03-17T07:28:31;97542.81;;;14.64;54.54
17209;BME280;8720;48.488;9.202;2024-03-17T07:31:00;97548.69;;;14.73;54.42
17209;BME280;8720;48.488;9.202;2024-03-17T07:33:28;97524.63;;;14.56;54.61
17209;BME280;8720;48.488;9.202;2024-03-17T07:35:57;97534.91;;;14.65;54.88
17209;BME280;8720;48.488;9.202;2024-03-17T07:38:29;97529.47;;;14.70;54.44
17209;BME280;8720;48.488;9.202;2024-03-17T07:40:58;97537.47;;;14.93;54.69
17209;BME280;8720;48.488;9.202;2024-03-17T07:43:28;97505.56;;;14.76;54.38
17209;BME280;8720;48.488;9.202;2024-03-17T07:46:02;97522.28;;;15.01;54.62
17209;BME280;8720;48.488;9.202;2024-03-17T07:48:31;97518.56;;;15.08;54.86
17209;BME280;8720;48.488;9.202;2024-03-17T07:51:01;97554.41;;;15.38;54.68
17209;BME280;8720;48.488;9.202;2024-03-17T07:53:30;97500.75;;;15.14;54.39
17209;BME280;8720;48.488;9.202;2024-03-17T07:55:59;97503.84;;;15.27;54.28
17209;BME280;8720;48.488;9.202;2024-03-17T07:58:27;97556.25;;;15.61;54.50
17209;BME280;8720;48.488;9.202;2024-03-17T08:00:57;97534.28;;;15.60;54.21
17209;BME280;8720;48.488;9.202;2024-03-17T08:03:29;97481.53;;;15.35;54.01
17209;BME280;8720;48.488;9.202;2024-03-17T08:05:59;97557.25;;;15.83;54.06
17209;BME280;8720;48.488;9.202;2024-03-17T08:08:27;97541.34;;;15.84;53.78
17209;BME280;8720;48.488;9.202;2024-03-17T08:10:55;97543.53;;;15.96;54.21
17209;BME280;8720;48.488;9.202;2024-03-17T08:13:23;97551.19;;;16.04;53.86
17209;BME280;8720;48.488;9.202;2024-03-17T08:15:57;97510.34;;;15.91;53.74
17209;BME280;8720;48.488;9.202;2024-03-17T08:18:25;97507.94;;;16.06;53.81
17209;BME280;8720;48.488;9.202;2024-03-17T08:20:56;97521.94;;;16.08;53.44
17209;BME280;8720;48.488;9.202;2024-03-17T08:23:24;97517.09;;;16.21;53.10
17209;BME280;8720;48.488;9.202;2024-03-17T08:25:52;97546.34;;;16.38;53.18
17209;BME280;8720;48.488;9.202;2024-03-17T08:28:21;97513.34;;;16.26;53.08
17209;BME280;8720;48.488;9.202;2024-03-17T08:30:53;97532.56;;;16.53;53.27
17209;BME280;8720;48.488;9.202;2024-03-17T08:33:22;97505.56;;;16.45;53.00
17209;BME280;8720;48.488;9.202;2024-03-17T08:35:56;97507.69;;;16.59;52.79
17209;BME280;8720;48.488;9.202;2024-03-17T08:38:24;97546.69;;;16.95;52.82
17209;BME280;8720;48.488;9.202;2024-03-17T08:40:57;97537.47;;;17.05;52.51
17209;BME280;8720;48.488;9.202;2024-03-17T08:43:31;97502.28;;;16.83;52.70
17209;BME280;8720;48.488;9.202;2024-03-17T08:46:03;97494.78;;;17.14;50.28
17209;BME280;8720;48.488;9.202;2024-03-17T08:48:34;97494.19;;;17.28;51.10
17209;BME280;8720;48.488;9.202;2024-03-17T08:51:06;97492.22;;;17.33;51.39
17209;BME280;8720;48.488;9.202;2024-03-17T08:53:35;97524.00;;;17.73;51.19
17209;BME280;8720;48.488;9.202;2024-03-17T08:56:05;97512.63;;;17.71;50.91
17209;BME280;8720;48.488;9.202;2024-03-17T08:58:34;97462.22;;;17.54;51.08
17209;BME280;8720;48.488;9.202;2024-03-17T09:01:06;97455.72;;;17.61;51.04
17209;BME280;8720;48.488;9.202;2024-03-17T09:03:35;97515.19;;;18.11;50.64
17209;BME280;8720;48.488;9.202;2024-03-17T09:06:15;97484.97;;;17.97;50.59
17209;BME280;8720;48.488;9.202;2024-03-17T09:08:45;97502.44;;;18.20;50.24
17209;BME280;8720;48.488;9.202;2024-03-17T09:11:14;97427.84;;;17.73;50.36
17209;BME280;8720;48.488;9.202;2024-03-17T09:13:42;97446.53;;;17.88;50.31
17209;BME280;8720;48.488;9.202;2024-03-17T09:16:10;97438.00;;;17.82;50.22
17209;BME280;8720;48.488;9.202;2024-03-17T09:18:42;97421.56;;;17.75;49.66
17209;BME280;8720;48.488;9.202;2024-03-17T09:21:12;97419.84;;;17.74;49.79
17209;BME280;8720;48.488;9.202;2024-03-17T09:23:40;97465.94;;;18.07;49.40
17209;BME280;8720;48.488;9.202;2024-03-17T09:26:09;97462.66;;;18.02;49.95
17209;BME280;8720;48.488;9.202;2024-03-17T09:28:38;97519.19;;;18.39;49.85
17209;BME280;8720;48.488;9.202;2024-03-17T09:31:06;97493.16;;;18.30;49.88
17209;BME280;8720;48.488;9.202;2024-03-17T09:33:35;97461.22;;;18.14;49.85
17209;BME280;8720;48.488;9.202;2024-03-17T09:36:06;97447.81;;;18.17;49.67
17209;BME280;8720;48.488;9.202;2024-03-17T09:38:36;97508.50;;;18.60;49.23
17209;BME280;8720;48.488;9.202;2024-03-17T09:41:06;97495.59;;;18.53;49.49
17209;BME280;8720;48.488;9.202;2024-03-17T09:43:36;97473.22;;;18.40;49.21
17209;BME280;8720;48.488;9.202;2024-03-17T09:46:07;97458.47;;;18.34;48.84
17209;BME280;8720;48.488;9.202;2024-03-17T09:48:35;97460.22;;;18.35;48.74
17209;BME280;8720;48.488;9.202;2024-03-17T09:51:04;97520.28;;;18.72;48.88
17209;BME280;8720;48.488;9.202;2024-03-17T09:53:34;97474.41;;;18.53;48.54
17209;BME280;8720;48.488;9.202;2024-03-17T09:56:09;97439.88;;;18.36;48.76
17209;BME280;8720;48.488;9.202;2024-03-17T09:58:37;97475.66;;;18.63;48.53
17209;BME280;8720;48.488;9.202;2024-03-17T10:01:05;97477.31;;;18.65;48.02
17209;BME280;8720;48.488;9.202;2024-03-17T10:03:47;97470.22;;;18.66;48.44
17209;BME280;8720;48.488;9.202;2024-03-17T10:06:19;97423.56;;;18.45;48.20
17209;BME280;8720;48.488;9.202;2024-03-17T10:08:51;97487.09;;;18.82;47.76
17209;BME280;8720;48.488;9.202;2024-03-17T10:11:21;97503.25;;;18.94;47.88
17209;BME280;8720;48.488;9.202;2024-03-17T10:14:01;97447.63;;;18.59;48.14
17209;BME280;8720;48.488;9.202;2024-03-17T10:16:31;97478.50;;;18.77;47.79
17209;BME280;8720;48.488;9.202;2024-03-17T10:19:10;97400.91;;;18.38;47.66
17209;BME280;8720;48.488;9.202;2024-03-17T10:21:40;97492.66;;;18.94;47.47
17209;BME280;8720;48.488;9.202;2024-03-17T10:24:12;97477.44;;;18.98;47.23
17209;BME280;8720;48.488;9.202;2024-03-17T10:26:46;97512.41;;;19.23;47.66
17209;BME280;8720;48.488;9.202;2024-03-17T10:29:22;97430.25;;;18.87;47.41
17209;BME280;8720;48.488;9.202;2024-03-17T10:31:52;97445.47;;;19.01;47.10
17209;BME280;8720;48.488;9.202;2024-03-17T10:34:21;97449.75;;;19.03;47.07
17209;BME280;8720;48.488;9.202;2024-03-17T10:36:51;97405.31;;;18.91;46.95
17209;BME280;8720;48.488;9.202;2024-03-17T10:39:26;97456.19;;;19.34;46.92
17209;BME280;8720;48.488;9.202;2024-03-17T10:42:01;97477.00;;;19.58;46.77
17209;BME280;8720;48.488;9.202;2024-03-17T10:44:30;97482.38;;;19.74;46.75
17209;BME280;8720;48.488;9.202;2024-03-17T10:47:00;97497.84;;;19.99;46.54
17209;BME280;8720;48.488;9.202;2024-03-17T10:49:30;97415.09;;;19.58;46.02
17209;BME280;8720;48.488;9.202;2024-03-17T10:52:02;97479.94;;;20.02;45.81
17209;BME280;8720;48.488;9.202;2024-03-17T10:54:33;97497.88;;;20.14;45.58
17209;BME280;8720;48.488;9.202;2024-03-17T10:57:45;97417.06;;;19.54;46.18
17209;BME280;8720;48.488;9.202;2024-03-17T11:00:16;97457.09;;;19.82;45.31
17209;BME280;8720;48.488;9.202;2024-03-17T11:02:46;97450.25;;;19.78;45.60
17209;BME280;8720;48.488;9.202;2024-03-17T11:05:19;97487.75;;;20.05;45.63
17209;BME280;8720;48.488;9.202;2024-03-17T11:07:50;97440.41;;;19.80;44.87
17209;BME280;8720;48.488;9.202;2024-03-17T11:10:26;97493.72;;;20.26;44.73
17209;BME280;8720;48.488;9.202;2024-03-17T11:12:56;97473.75;;;20.19;44.66
17209;BME280;8720;48.488;9.202;2024-03-17T11:15:40;97458.59;;;20.21;45.10
17209;BME280;8720;48.488;9.202;2024-03-17T11:18:33;97489.03;;;20.46;45.25
17209;BME280;8720;48.488;9.202;2024-03-17T11:21:06;97485.88;;;20.55;44.83
17209;BME280;8720;48.488;9.202;2024-03-17T11:23:37;97437.50;;;20.33;44.31
17209;BME280;8720;48.488;9.202;2024-03-17T11:26:08;97492.34;;;20.65;43.76
17209;BME280;8720;48.488;9.202;2024-03-17T11:28:50;97483.53;;;20.65;43.79
17209;BME280;8720;48.488;9.202;2024-03-17T11:31:35;97439.13;;;20.36;44.07
17209;BME280;8720;48.488;9.202;2024-03-17T11:34:04;97480.28;;;20.60;44.16
17209;BME280;8720;48.488;9.202;2024-03-17T11:36:37;97475.81;;;20.60;43.83
17209;BME280;8720;48.488;9.202;2024-03-17T11:39:06;97447.53;;;20.44;43.47
17209;BME280;8720;48.488;9.202;2024-03-17T11:41:45;97481.47;;;20.70;43.55
17209;BME280;8720;48.488;9.202;2024-03-17T11:44:23;97473.72;;;20.81;43.98
17209;BME280;8720;48.488;9.202;2024-03-17T11:46:54;97365.84;;;20.32;43.79
17209;BME280;8720;48.488;9.202;2024-03-17T11:49:24;97369.25;;;20.49;43.03
17209;BME280;8720;48.488;9.202;2024-03-17T11:51:53;97464.03;;;21.11;42.93
17209;BME280;8720;48.488;9.202;2024-03-17T11:54:25;97414.59;;;20.92;42.37
17209;BME280;8720;48.488;9.202;2024-03-17T11:57:03;97384.63;;;20.74;42.54
17209;BME280;8720;48.488;9.202;2024-03-17T11:59:30;97403.00;;;20.93;42.69
17209;BME280;8720;48.488;9.202;2024-03-17T12:01:58;97462.50;;;21.21;42.22
17209;BME280;8720;48.488;9.202;2024-03-17T12:04:26;97406.53;;;20.93;42.01
17209;BME280;8720;48.488;9.202;2024-03-17T12:06:56;97468.84;;;21.34;41.91
17209;BME280;8720;48.488;9.202;2024-03-17T12:09:26;97422.28;;;21.12;42.02
17209;BME280;8720;48.488;9.202;2024-03-17T12:12:01;97362.13;;;20.79;41.67
17209;BME280;8720;48.488;9.202;2024-03-17T12:14:31;97415.00;;;21.15;42.01
17209;BME280;8720;48.488;9.202;2024-03-17T12:17:00;97358.06;;;20.88;41.71
17209;BME280;8720;48.488;9.202;2024-03-17T12:19:28;97405.03;;;21.19;41.35
17209;BME280;8720;48.488;9.202;2024-03-17T12:21:58;97408.16;;;21.25;41.38
17209;BME280;8720;48.488;9.202;2024-03-17T12:24:27;97417.78;;;21.28;41.22
17209;BME280;8720;48.488;9.202;2024-03-17T12:26:57;97436.75;;;21.51;40.75
17209;BME280;8720;48.488;9.202;2024-03-17T12:29:29;97351.56;;;21.08;41.02
17209;BME280;8720;48.488;9.202;2024-03-17T12:32:00;97370.91;;;21.11;41.23
17209;BME280;8720;48.488;9.202;2024-03-17T12:34:31;97423.78;;;21.45;40.78
17209;BME280;8720;48.488;9.202;2024-03-17T12:36:59;97384.97;;;21.27;40.68
17209;BME280;8720;48.488;9.202;2024-03-17T12:39:28;97321.03;;;20.99;40.72
17209;BME280;8720;48.488;9.202;2024-03-17T12:42:04;97331.25;;;21.07;40.99
17209;BME280;8720;48.488;9.202;2024-03-17T12:44:34;97352.38;;;21.24;40.64
17209;BME280;8720;48.488;9.202;2024-03-17T12:47:05;97401.44;;;21.62;40.28
17209;BME280;8720;48.488;9.202;2024-03-17T12:49:33;97422.09;;;21.73;40.09
17209;BME280;8720;48.488;9.202;2024-03-17T12:52:02;97322.13;;;21.11;40.23
17209;BME280;8720;48.488;9.202;2024-03-17T12:54:29;97403.81;;;21.52;40.23
17209;BME280;8720;48.488;9.202;2024-03-17T12:57:04;97415.34;;;21.53;39.88
17209;BME280;8720;48.488;9.202;2024-03-17T12:59:52;97356.25;;;21.18;39.89
17209;BME280;8720;48.488;9.202;2024-03-17T13:02:44;97358.25;;;21.15;40.42
17209;BME280;8720;48.488;9.202;2024-03-17T13:05:19;97355.69;;;21.13;40.03
17209;BME280;8720;48.488;9.202;2024-03-17T13:07:47;97400.97;;;21.41;39.65
17209;BME280;8720;48.488;9.202;2024-03-17T13:10:16;97336.00;;;21.02;39.61
17209;BME280;8720;48.488;9.202;2024-03-17T13:12:45;97370.34;;;21.20;40.17
17209;BME280;8720;48.488;9.202;2024-03-17T13:15:16;97381.06;;;21.33;40.19
17209;BME280;8720;48.488;9.202;2024-03-17T13:17:48;97306.41;;;20.92;40.05
17209;BME280;8720;48.488;9.202;2024-03-17T13:20:21;97324.78;;;21.11;39.89
17209;BME280;8720;48.488;9.202;2024-03-17T13:22:49;97338.28;;;21.22;39.55
17209;BME280;8720;48.488;9.202;2024-03-17T13:25:18;97358.16;;;21.44;39.46
17209;BME280;8720;48.488;9.202;2024-03-17T13:27:48;97320.34;;;21.25;39.27